Buoy 13516

sailwx.info

Track history (hours):
 
Tides and Currents Weather Stations Pressure Air Temp Water Temp Dewpoint Dewpoint Depression Visibility Wind Speed Wind Dir Waves Ship Positions

Ao Chao Yang 13516

Last reported at 2014-Oct-31 19:36 UTC. Time now 2014-Oct-31 22:22 UTC.
Position N 28°19' W 038°03'.

Length 20 m.

Type: Fishing. MMSI: 412469022.

Water temperature 25.8 ° C

Date/timePositionNaut miles runAvg speedWind from/ knotsBaromVisibWave heightAir tempDewpointWater temp
2014-Oct-31 19:36N 28°19' W 038°03'0 0.0 25.8
2014-Oct-31 18:50N 28°19' W 038°03'0 0.0 25.8
2014-Oct-31 17:08N 28°19' W 038°03'0 0.8 25.8
2014-Oct-31 16:50N 28°19' W 038°03'0 0.2 25.8
2014-Oct-31 15:08N 28°19' W 038°02'0 0.2 25.8
2014-Oct-31 13:39N 28°19' W 038°03'0 0.0 25.8
2014-Oct-31 12:53N 28°19' W 038°03'1 0.5 25.8
2014-Oct-31 11:53N 28°19' W 038°02'0 7.9 25.8
2014-Oct-31 11:51N 28°19' W 038°02'0 0.0 25.8
2014-Oct-31 11:08N 28°19' W 038°02'0 8.8 25.8
2014-Oct-31 11:05N 28°19' W 038°02'0 0.2 25.8
2014-Oct-31 09:08N 28°19' W 038°02'010.9 25.8
2014-Oct-31 09:06N 28°19' W 038°01'1 5.4 25.8
2014-Oct-31 09:00N 28°18' W 038°01'0 0.0 25.8
2014-Oct-31 07:27N 28°18' W 038°01'011.9 25.8
2014-Oct-31 07:26N 28°18' W 038°01'113.0 25.8
2014-Oct-31 07:21N 28°18' W 038°00'0 0.0 25.8
2014-Oct-31 05:45N 28°18' W 038°00'0 0.0 25.8
2014-Oct-31 05:24N 28°18' W 038°00'0 3.7 25.8
2014-Oct-31 05:18N 28°18' W 038°01'0 0.1 25.8
2014-Oct-31 03:44N 28°18' W 038°01'1 5.1 25.9
2014-Oct-31 03:36N 28°19' W 038°00'0 0.0
2014-Oct-31 01:15N 28°19' W 038°00'0 0.0 25.9
2014-Oct-31 01:11N 28°19' W 038°00'2 2.4 25.9
2014-Oct-31 00:29N 28°19' W 038°02'0 0.0 25.9
2014-Oct-30 23:38N 28°19' W 038°02'0 0.0 25.9
2014-Oct-30 22:47N 28°19' W 038°02'221.6 25.9
2014-Oct-30 22:42N 28°19' W 037°60'0 0.0 25.9
2014-Oct-30 21:53N 28°19' W 037°60'1 0.7 25.9
2014-Oct-30 20:42N 28°19' W 037°59'0 0.0 25.9
2014-Oct-30 20:35N 28°19' W 037°59'1 3.0 25.9
2014-Oct-30 20:17N 28°19' W 038°00'1 0.7 25.9
2014-Oct-30 18:59N 28°19' W 037°59'0 2.4 25.9
2014-Oct-30 18:57N 28°19' W 037°59'0 0.3 25.9
2014-Oct-30 17:18N 28°18' W 037°60'0 0.0 26.0
2014-Oct-30 17:00N 28°18' W 037°60'0 0.0 26.0
2014-Oct-30 16:53N 28°18' W 037°60'0 0.2 26.0
2014-Oct-30 15:20N 28°18' W 038°00'1 0.5 26.0
2014-Oct-30 13:59N 28°18' W 037°59'0 0.0 25.9
2014-Oct-30 13:14N 28°18' W 037°59'0 0.2 25.9
2014-Oct-30 12:12N 28°18' W 037°59'0 0.0
2014-Oct-30 11:30N 28°18' W 037°59'0 6.6 25.9
2014-Oct-30 11:26N 28°18' W 037°59'0 0.1 25.9
2014-Oct-30 09:29N 28°18' W 037°59'1 6.7 25.9
2014-Oct-30 09:24N 28°19' W 037°58'0 0.0 25.9
2014-Oct-30 09:17N 28°19' W 037°58'0 0.3 25.9
2014-Oct-30 07:59N 28°18' W 037°59'0 0.7 25.9
2014-Oct-30 07:48N 28°18' W 037°58'0 2.2 25.9
2014-Oct-30 07:36N 28°19' W 037°58'0 4.9 25.9
2014-Oct-30 07:33N 28°19' W 037°58'0 0.0 25.9
2014-Oct-30 07:30N 28°19' W 037°58'0 0.1 25.9
2014-Oct-30 05:51N 28°19' W 037°58'0 0.0 25.9
2014-Oct-30 05:36N 28°19' W 037°58'1 0.8 25.9
2014-Oct-30 03:50N 28°20' W 037°57'0 0.0 25.9
2014-Oct-30 01:32N 28°20' W 037°57'0 0.0 25.9
2014-Oct-30 00:48N 28°20' W 037°57'1 1.1 25.9
2014-Oct-29 23:53N 28°20' W 037°58'0 0.0 25.9
2014-Oct-29 23:08N 28°20' W 037°58'0 2.9 25.9
2014-Oct-29 23:02N 28°20' W 037°58'0 0.0 25.9
2014-Oct-29 22:23N 28°20' W 037°58'0 2.5 26.0
2014-Oct-29 22:17N 28°20' W 037°58'0 0.0 26.0
2014-Oct-29 22:12N 28°20' W 037°58'0 0.1 26.0
2014-Oct-29 20:38N 28°20' W 037°58'0 0.1 26.0
2014-Oct-29 19:30N 28°20' W 037°58'0 1.1 26.0
2014-Oct-29 19:12N 28°20' W 037°58'114.3 26.0
2014-Oct-29 19:08N 28°20' W 037°60'0 0.3 26.1
2014-Oct-29 17:48N 28°20' W 037°59'1 2.3 26.1
2014-Oct-29 17:30N 28°20' W 037°58'1 3.3 26.2
2014-Oct-29 17:11N 28°20' W 037°60'121.2 26.2
2014-Oct-29 17:08N 28°20' W 037°58'1 0.6 26.2
2014-Oct-29 15:30N 28°20' W 037°60'1 0.6 26.2
2014-Oct-29 14:18N 28°20' W 037°59'0 0.5 26.0
2014-Oct-29 13:23N 28°20' W 037°59'0 0.0
2014-Oct-29 12:32N 28°20' W 037°59'0 0.0 26.0
2014-Oct-29 11:51N 28°20' W 037°59'0 4.8 25.9
2014-Oct-29 11:50N 28°20' W 037°59'0 0.7 25.9
2014-Oct-29 11:45N 28°20' W 037°59'0 0.0 25.9
2014-Oct-29 10:57N 28°20' W 037°59'0 0.0 25.9
2014-Oct-29 10:53N 28°20' W 037°59'0 0.1 25.9
2014-Oct-29 10:06N 28°20' W 037°59'0 1.3 25.9
2014-Oct-29 09:53N 28°20' W 037°59'0 4.9 25.9
2014-Oct-29 09:48N 28°19' W 037°59'0 0.0 25.9
2014-Oct-29 09:27N 28°19' W 037°59'0 0.2 25.9
2014-Oct-29 08:08N 28°19' W 037°59'0 0.2 25.9
2014-Oct-29 07:45N 28°19' W 037°59'0 5.5 25.9
2014-Oct-29 07:41N 28°20' W 037°59'0 0.0 25.9
2014-Oct-29 06:50N 28°20' W 037°59'0 0.8 25.9
2014-Oct-29 06:33N 28°19' W 037°59'0 0.3 25.9
2014-Oct-29 06:08N 28°20' W 037°59'0 3.1 25.9
2014-Oct-29 06:00N 28°19' W 037°58'0 0.0 25.9
2014-Oct-29 05:48N 28°19' W 037°58'0 6.5 25.9
2014-Oct-29 05:45N 28°19' W 037°58'1 0.3 25.9
2014-Oct-29 04:08N 28°20' W 037°58'0 2.4 25.9
2014-Oct-29 04:06N 28°20' W 037°58'1 8.3 25.9
2014-Oct-29 04:00N 28°19' W 037°58'0 0.0 25.9
2014-Oct-29 01:06N 28°19' W 037°58'016.7 25.9
2014-Oct-29 01:05N 28°19' W 037°58'0 0.1
2014-Oct-29 00:18N 28°19' W 037°58'1 1.0 25.9
2014-Oct-28 23:30N 28°19' W 037°59'0 1.2 25.9
2014-Oct-28 23:27N 28°19' W 037°59'110.9 25.9
2014-Oct-28 23:23N 28°19' W 037°58'118.9
2014-Oct-28 23:21N 28°19' W 037°59'0 0.0 26.0
2014-Oct-28 22:51N 28°19' W 037°59'0 0.0 26.0
2014-Oct-28 22:38N 28°19' W 037°59'0 2.4 26.0
2014-Oct-28 22:33N 28°19' W 037°58'1 0.9 26.0
2014-Oct-28 21:30N 28°20' W 037°58'0 0.0 26.0
2014-Oct-28 19:53N 28°20' W 037°58'111.9 26.2
2014-Oct-28 19:50N 28°20' W 037°57'1 3.1 26.2
2014-Oct-28 19:30N 28°20' W 037°58'0 0.0 26.2
2014-Oct-28 19:23N 28°20' W 037°58'0 0.0 26.3
2014-Oct-28 18:14N 28°20' W 037°58'0 3.6 26.4
2014-Oct-28 18:08N 28°20' W 037°58'0 0.5 26.4
2014-Oct-28 17:42N 28°20' W 037°58'0 3.0 26.4
2014-Oct-28 17:38N 28°20' W 037°58'0 1.0 26.4
2014-Oct-28 17:23N 28°20' W 037°58'1 0.4 26.4
2014-Oct-28 15:42N 28°20' W 037°59'0 0.1 26.4
2014-Oct-28 13:53N 28°20' W 037°59'0 0.0 26.2
2014-Oct-28 13:45N 28°20' W 037°59'0 0.0 26.2
2014-Oct-28 12:06N 28°20' W 037°59'0 0.0
2014-Oct-28 12:05N 28°20' W 037°59'0 0.2 26.0
2014-Oct-28 11:20N 28°20' W 037°59'1 8.6 25.9
2014-Oct-28 11:15N 28°20' W 037°58'0 0.0 25.9
2014-Oct-28 09:00N 28°20' W 037°58'0 0.9 25.9
2014-Oct-28 08:33N 28°19' W 037°58'0 0.5 25.9
2014-Oct-28 07:57N 28°20' W 037°58'0 0.2 25.9
2014-Oct-28 07:20N 28°20' W 037°58'0 0.3 25.9
2014-Oct-28 06:51N 28°20' W 037°58'0 0.0 25.9
2014-Oct-28 06:18N 28°20' W 037°58'0 2.4 25.9
2014-Oct-28 06:14N 28°20' W 037°58'0 0.0 25.9
2014-Oct-28 05:59N 28°20' W 037°58'0 9.5 25.9
2014-Oct-28 05:56N 28°20' W 037°57'0 9.7 25.9
2014-Oct-28 05:53N 28°20' W 037°58'0 0.0 25.9
2014-Oct-28 04:18N 28°20' W 037°58'111.2 25.9
2014-Oct-28 04:11N 28°20' W 037°56'0 0.0 25.9
2014-Oct-28 01:26N 28°20' W 037°56'1 0.5 26.0
2014-Oct-27 23:51N 28°20' W 037°57'0 0.0 26.0
2014-Oct-27 23:44N 28°20' W 037°57'0 0.0 26.0
2014-Oct-27 22:59N 28°20' W 037°57'1 9.3 26.0
2014-Oct-27 22:53N 28°20' W 037°58'246.5 26.0
2014-Oct-27 22:51N 28°20' W 037°57'0 0.0 26.0
2014-Oct-27 21:50N 28°20' W 037°57'1 0.4 26.0
2014-Oct-27 20:18N 28°21' W 037°56'0 0.0 26.1
2014-Oct-27 20:03N 28°21' W 037°56'112.9 26.1
2014-Oct-27 20:00N 28°21' W 037°57'0 0.4 26.1
2014-Oct-27 19:35N 28°21' W 037°57'0 0.3 26.2
2014-Oct-27 18:39N 28°21' W 037°57'022.5 26.2
2014-Oct-27 18:38N 28°21' W 037°57'0 0.2 26.2
2014-Oct-27 17:53N 28°21' W 037°57'1 2.4 26.3
2014-Oct-27 17:32N 28°22' W 037°58'0 0.0 26.3
2014-Oct-27 15:53N 28°22' W 037°58'1 0.4 26.2
2014-Oct-27 14:08N 28°21' W 037°58'0 0.0 26.0
2014-Oct-27 14:06N 28°21' W 037°58'0 0.0
2014-Oct-27 12:32N 28°21' W 037°58'0 0.0 26.0
2014-Oct-27 12:24N 28°21' W 037°58'0 0.0 26.0
2014-Oct-27 11:41N 28°21' W 037°58'0 3.2 26.0
2014-Oct-27 11:35N 28°21' W 037°58'0 0.0 26.0
2014-Oct-27 10:53N 28°21' W 037°58'0 0.0 26.0
2014-Oct-27 10:48N 28°21' W 037°58'0 0.2 26.0
2014-Oct-27 09:02N 28°21' W 037°58'0 2.9 25.9
2014-Oct-27 08:53N 28°21' W 037°58'0 0.0 25.9
2014-Oct-27 08:08N 28°21' W 037°58'0 0.8 26.0
2014-Oct-27 07:53N 28°20' W 037°58'0 0.4 26.0
2014-Oct-27 07:23N 28°21' W 037°58'0 0.5 26.0
2014-Oct-27 06:33N 28°21' W 037°57'0 1.2 25.9
2014-Oct-27 06:30N 28°21' W 037°57'0 0.5 25.9
2014-Oct-27 06:23N 28°21' W 037°57'0 0.0
2014-Oct-27 06:06N 28°21' W 037°57'0 0.2 26.0
2014-Oct-27 04:27N 28°21' W 037°57'1 9.2 26.0
2014-Oct-27 04:21N 28°21' W 037°56'0 0.0 26.0
2014-Oct-27 00:59N 28°21' W 037°56'1 0.9 26.0
2014-Oct-27 00:08N 28°21' W 037°57'0 0.0 26.0
2014-Oct-27 00:05N 28°21' W 037°57'0 0.1 26.0
2014-Oct-26 23:20N 28°21' W 037°57'0 3.5 26.0
2014-Oct-26 23:15N 28°22' W 037°56'148.0 26.0
2014-Oct-26 23:14N 28°22' W 037°56'0 0.5 26.0
2014-Oct-26 22:30N 28°22' W 037°56'0 1.7 26.0
2014-Oct-26 22:17N 28°22' W 037°56'1 0.4 26.0
2014-Oct-26 20:42N 28°23' W 037°56'0 0.0 26.2
2014-Oct-26 20:33N 28°23' W 037°56'1 1.5 26.2
2014-Oct-26 19:47N 28°23' W 037°57'0 1.6 26.2
2014-Oct-26 19:42N 28°23' W 037°57'0 0.0 26.2
2014-Oct-26 18:06N 28°23' W 037°57'1 2.0 26.4
2014-Oct-26 17:44N 28°23' W 037°56'1 0.6 26.5
2014-Oct-26 16:05N 28°23' W 037°58'0 0.1 26.4
2014-Oct-26 14:20N 28°23' W 037°58'0 0.0 26.2
2014-Oct-26 13:42N 28°23' W 037°58'0 0.0 26.2
2014-Oct-26 12:53N 28°23' W 037°58'0 0.0 26.1
2014-Oct-26 12:51N 28°23' W 037°58'0 0.0 26.1
2014-Oct-26 12:48N 28°23' W 037°58'0 0.0 26.1
2014-Oct-26 12:02N 28°23' W 037°58'1 4.1 26.0
2014-Oct-26 11:53N 28°22' W 037°58'0 0.0 26.0
2014-Oct-26 11:14N 28°22' W 037°58'0 0.0 26.0
2014-Oct-26 11:11N 28°22' W 037°58'0 0.0 26.0
2014-Oct-26 11:06N 28°22' W 037°58'0 0.0 26.0
2014-Oct-26 10:00N 28°22' W 037°58'0 0.8 25.9
2014-Oct-26 09:29N 28°23' W 037°58'1 9.0 26.0
2014-Oct-26 09:23N 28°23' W 037°59'0 0.0 26.0
2014-Oct-26 08:24N 28°23' W 037°59'0 3.6 25.9
2014-Oct-26 08:21N 28°22' W 037°59'116.6 25.9
2014-Oct-26 08:17N 28°22' W 037°58'0 0.3 25.9
2014-Oct-26 07:50N 28°22' W 037°58'0 1.0 26.0
2014-Oct-26 07:42N 28°22' W 037°58'0 0.2
2014-Oct-26 06:45N 28°22' W 037°58'0 0.0 26.0
2014-Oct-26 06:42N 28°22' W 037°58'0 2.7 26.0
2014-Oct-26 06:35N 28°22' W 037°58'0 0.0 26.0
2014-Oct-26 06:23N 28°22' W 037°58'1 0.3 26.0
2014-Oct-26 04:38N 28°23' W 037°58'111.1 26.0
2014-Oct-26 04:32N 28°23' W 037°57'0 0.0 26.0
2014-Oct-26 02:59N 28°23' W 037°57'0 0.0 26.0
2014-Oct-26 01:20N 28°23' W 037°57'111.0 26.0
2014-Oct-26 01:15N 28°22' W 037°58'0 0.0 26.0
2014-Oct-26 00:32N 28°22' W 037°58'0 0.4 26.0
2014-Oct-25 23:36N 28°23' W 037°57'1 1.1 26.0
2014-Oct-25 22:51N 28°23' W 037°56'0 6.3 26.0
2014-Oct-25 22:48N 28°23' W 037°56'0 0.4 26.0
2014-Oct-25 21:59N 28°23' W 037°56'0 4.0 26.0
2014-Oct-25 21:53N 28°23' W 037°56'0 0.0 26.0
2014-Oct-25 21:06N 28°23' W 037°56'0 5.8 26.0
2014-Oct-25 21:02N 28°23' W 037°57'0 0.0 26.0
2014-Oct-25 19:57N 28°23' W 037°57'1 1.7 26.0
2014-Oct-25 19:29N 28°24' W 037°57'0 0.0 26.0
2014-Oct-25 18:17N 28°24' W 037°57'1 1.4 26.1
2014-Oct-25 17:51N 28°24' W 037°57'0 6.0 26.1
2014-Oct-25 17:47N 28°24' W 037°57'0 0.3 26.1
2014-Oct-25 16:30N 28°24' W 037°57'0 0.0 26.1
2014-Oct-25 16:15N 28°24' W 037°57'0 0.2 26.1
2014-Oct-25 14:33N 28°25' W 037°57'0 0.0 26.0
2014-Oct-25 14:03N 28°25' W 037°57'1 0.9 26.0
2014-Oct-25 13:12N 28°25' W 037°58'0 0.0 26.0
2014-Oct-25 12:21N 28°25' W 037°58'0 8.2 26.0
2014-Oct-25 12:18N 28°24' W 037°58'0 0.0 26.0
2014-Oct-25 12:15N 28°24' W 037°58'0 0.0 26.0
2014-Oct-25 11:29N 28°24' W 037°58'0 0.0 26.0
2014-Oct-25 10:42N 28°24' W 037°58'1 8.1 26.0
2014-Oct-25 10:38N 28°24' W 037°57'0 0.0 26.0
2014-Oct-25 09:51N 28°24' W 037°57'1 7.9 26.0
2014-Oct-25 09:47N 28°24' W 037°58'0 0.0 26.0
2014-Oct-25 08:56N 28°24' W 037°58'0 0.6 26.0
2014-Oct-25 08:35N 28°24' W 037°58'0 2.7 26.0
2014-Oct-25 08:27N 28°24' W 037°58'0 0.0 26.0
2014-Oct-25 08:08N 28°24' W 037°58'0 0.3 26.0
2014-Oct-25 07:15N 28°24' W 037°58'0 1.1 26.0
2014-Oct-25 06:53N 28°24' W 037°58'0 1.2 26.0
2014-Oct-25 06:47N 28°24' W 037°58'0 0.0 26.0
2014-Oct-25 06:33N 28°24' W 037°58'0 0.0 26.0
2014-Oct-25 04:53N 28°24' W 037°58'254.0 26.0
2014-Oct-25 04:51N 28°24' W 037°56'0 0.0 26.0
2014-Oct-25 04:42N 28°24' W 037°56'0 0.0 26.0
2014-Oct-25 03:08N 28°24' W 037°56'0 0.0 26.0
2014-Oct-25 03:05N 28°24' W 037°56'1 0.3 26.0
2014-Oct-25 01:36N 28°24' W 037°56'0 0.0 26.0
2014-Oct-25 00:50N 28°24' W 037°56'0 0.1 26.0
2014-Oct-25 00:02N 28°24' W 037°56'0 0.3 26.0
2014-Oct-24 23:12N 28°24' W 037°57'0 0.0 26.0
2014-Oct-24 23:06N 28°24' W 037°57'0 0.0 26.0
2014-Oct-24 22:20N 28°24' W 037°57'0 2.0 26.0
2014-Oct-24 22:15N 28°24' W 037°57'1 1.0 26.0
2014-Oct-24 21:27N 28°24' W 037°56'0 0.3 26.0
2014-Oct-24 20:08N 28°24' W 037°56'1 2.1 26.0
2014-Oct-24 19:53N 28°25' W 037°55'233.1 26.0
2014-Oct-24 19:50N 28°24' W 037°57'0 0.3 26.0
2014-Oct-24 18:29N 28°25' W 037°57'2 7.2 26.0
2014-Oct-24 18:11N 28°26' W 037°55'0 0.0 26.0
2014-Oct-24 18:03N 28°26' W 037°55'0 0.0 26.0
2014-Oct-24 16:26N 28°25' W 037°55'2 1.0 26.1
2014-Oct-24 14:44N 28°26' W 037°57'0 0.0 26.0
2014-Oct-24 14:21N 28°26' W 037°57'0 0.0 26.0
2014-Oct-24 13:36N 28°26' W 037°57'0 0.0 26.0
2014-Oct-24 12:47N 28°26' W 037°57'1 4.2 26.0
2014-Oct-24 12:39N 28°26' W 037°58'112.7
2014-Oct-24 12:35N 28°26' W 037°59'0 0.0 26.0
2014-Oct-24 11:51N 28°26' W 037°59'0 0.0 26.0
2014-Oct-24 11:47N 28°26' W 037°59'0 0.0 26.0
2014-Oct-24 11:03N 28°26' W 037°59'0 0.0 26.0
2014-Oct-24 11:00N 28°26' W 037°59'0 0.2 26.0
2014-Oct-24 09:26N 28°26' W 037°58'0 0.4 26.0
2014-Oct-24 08:45N 28°26' W 037°58'0 3.2 26.0
2014-Oct-24 08:39N 28°26' W 037°59'0 0.0 26.0
2014-Oct-24 08:35N 28°26' W 037°59'0 0.1 26.0
2014-Oct-24 07:05N 28°25' W 037°59'1 0.3 26.0
2014-Oct-24 05:23N 28°25' W 037°59'0 0.0 26.0
2014-Oct-24 05:02N 28°25' W 037°59'111.6 26.0
2014-Oct-24 04:56N 28°24' W 037°59'0 0.0 26.0
2014-Oct-24 03:23N 28°24' W 037°59'123.0
2014-Oct-24 03:21N 28°25' W 037°59'112.7 26.0
2014-Oct-24 03:15N 28°25' W 037°58'0 0.0 26.0
2014-Oct-24 00:23N 28°25' W 037°58'1 0.7 26.0
2014-Oct-23 23:33N 28°24' W 037°58'0 0.0 26.0
2014-Oct-23 23:29N 28°24' W 037°58'0 0.0 26.0
2014-Oct-23 23:20N 28°24' W 037°58'0 0.0 26.0
2014-Oct-23 22:38N 28°24' W 037°58'0 3.6 26.0
2014-Oct-23 22:35N 28°24' W 037°58'0 0.0 26.1
2014-Oct-23 22:32N 28°24' W 037°58'0 0.0 26.1
2014-Oct-23 22:15N 28°24' W 037°58'1 0.5 26.1
2014-Oct-23 20:27N 28°25' W 037°58'0 0.0 26.1
2014-Oct-23 20:17N 28°25' W 037°58'1 0.6 26.1
2014-Oct-23 18:39N 28°26' W 037°57'0 0.0 26.1
2014-Oct-23 18:33N 28°26' W 037°57'0 0.0 26.1
2014-Oct-23 16:57N 28°26' W 037°57'0 0.3 26.2
2014-Oct-23 16:38N 28°26' W 037°57'0 1.2 26.2
2014-Oct-23 16:32N 28°26' W 037°57'1 0.5 26.2
2014-Oct-23 14:53N 28°27' W 037°58'1 0.9 26.1
2014-Oct-23 13:56N 28°27' W 037°59'1 1.0 26.1
2014-Oct-23 13:06N 28°27' W 037°58'1 7.0 26.1
2014-Oct-23 12:59N 28°27' W 037°59'0 0.0 26.1
2014-Oct-23 12:11N 28°27' W 037°59'0 0.0 26.0
2014-Oct-23 12:08N 28°27' W 037°59'0 0.2 26.0
2014-Oct-23 11:23N 28°27' W 037°59'0 3.2 26.0
2014-Oct-23 11:18N 28°27' W 037°59'112.4 26.0
2014-Oct-23 11:15N 28°26' W 037°59'0 0.0 26.0
2014-Oct-23 09:53N 28°26' W 037°59'1 0.9 26.0
2014-Oct-23 08:59N 28°27' W 038°00'0 0.2 26.0
2014-Oct-23 07:15N 28°27' W 038°00'0 3.5 26.0
2014-Oct-23 07:08N 28°27' W 038°01'0 0.0 26.0
2014-Oct-23 06:53N 28°27' W 038°01'0 0.0 26.0
2014-Oct-23 06:38N 28°27' W 038°01'0 0.0 26.1
2014-Oct-23 05:35N 28°27' W 038°01'1 1.4 26.1
2014-Oct-23 05:14N 28°26' W 038°01'1 6.9 26.1
2014-Oct-23 05:06N 28°25' W 037°60'0 0.0 26.1
2014-Oct-23 03:33N 28°25' W 037°60'0 0.1 26.1
2014-Oct-22 23:51N 28°25' W 038°00'0 0.0 26.1
2014-Oct-22 23:47N 28°25' W 038°00'0 0.0
2014-Oct-22 23:03N 28°25' W 038°00'1 5.9 26.1
2014-Oct-22 22:57N 28°25' W 037°60'0 0.0 26.1
2014-Oct-22 22:44N 28°25' W 037°60'1 2.1 26.1
2014-Oct-22 22:12N 28°26' W 037°60'0 0.0 26.1
2014-Oct-22 20:57N 28°26' W 037°60'0 0.0 26.1
2014-Oct-22 20:42N 28°26' W 037°60'0 0.0 26.1
2014-Oct-22 20:29N 28°26' W 037°60'0 0.0 26.1
2014-Oct-22 19:21N 28°26' W 037°60'0 0.0 26.1
2014-Oct-22 18:51N 28°26' W 037°60'0 0.0 26.2
2014-Oct-22 17:05N 28°26' W 037°60'0 0.0 26.2
2014-Oct-22 16:48N 28°26' W 037°60'1 0.3 26.2
2014-Oct-22 15:08N 28°27' W 037°59'1 0.5 26.2
2014-Oct-22 12:35N 28°28' W 038°01'0 0.0 26.2
2014-Oct-22 11:44N 28°28' W 038°01'1 7.6 26.1
2014-Oct-22 11:39N 28°28' W 038°01'0 0.2 26.1
2014-Oct-22 10:48N 28°28' W 038°01'0 0.0 26.1
2014-Oct-22 09:23N 28°28' W 038°01'139.5 26.1
2014-Oct-22 09:21N 28°27' W 038°03'0 0.0 26.1
2014-Oct-22 09:06N 28°27' W 038°03'1 9.5 26.1
2014-Oct-22 09:02N 28°27' W 038°02'1 5.9 26.1
2014-Oct-22 08:50N 28°28' W 038°01'1 0.6 26.1
2014-Oct-22 07:27N 28°27' W 038°02'0 0.3 26.1
2014-Oct-22 07:08N 28°27' W 038°02'1 0.5 26.1
2014-Oct-22 05:48N 28°27' W 038°02'0 3.6 26.1
2014-Oct-22 05:44N 28°27' W 038°02'0 0.0 26.1
2014-Oct-22 05:24N 28°27' W 038°02'1 0.4 26.1
2014-Oct-22 03:47N 28°27' W 038°03'0 0.0 26.2
2014-Oct-22 03:44N 28°27' W 038°03'1 9.5 26.2
2014-Oct-22 03:36N 28°26' W 038°03'0 0.1 26.2
2014-Oct-22 01:03N 28°26' W 038°02'2 2.5 26.2
2014-Oct-22 00:15N 28°27' W 038°01'214.8 26.2
2014-Oct-22 00:08N 28°26' W 038°03'0 0.0 26.2
2014-Oct-21 23:24N 28°26' W 038°03'110.5 26.2
2014-Oct-21 23:17N 28°26' W 038°01'0 0.0 26.2
2014-Oct-21 22:33N 28°26' W 038°01'0 0.0 26.2
2014-Oct-21 22:27N 28°26' W 038°01'0 0.0 26.2
2014-Oct-21 21:38N 28°26' W 038°01'1 0.5 26.2
2014-Oct-21 20:38N 28°27' W 038°01'0 0.0 26.2
2014-Oct-21 19:59N 28°27' W 038°01'   26.2
Track history (hours):
 
Tides and Currents Weather Stations Pressure Air Temp Water Temp Dewpoint Dewpoint Depression Visibility Wind Speed Wind Dir Waves Ship Positions

Ao Chao Yang 13516

Last reported at 2014-Oct-31 19:36 UTC. Time now 2014-Oct-31 22:22 UTC.
Position N 28°19' W 038°03'.

Length 20 m.

Type: Fishing. MMSI: 412469022.

Water temperature 25.8 ° C

Date/timePositionNaut miles runAvg speedWind from/ knotsBaromVisibWave heightAir tempDewpointWater temp
2014-Oct-31 19:36N 28°19' W 038°03'0 0.0 25.8
2014-Oct-31 18:50N 28°19' W 038°03'0 0.0 25.8
2014-Oct-31 17:08N 28°19' W 038°03'0 0.8 25.8
2014-Oct-31 16:50N 28°19' W 038°03'0 0.2 25.8
2014-Oct-31 15:08N 28°19' W 038°02'0 0.2 25.8
2014-Oct-31 13:39N 28°19' W 038°03'0 0.0 25.8
2014-Oct-31 12:53N 28°19' W 038°03'1 0.5 25.8
2014-Oct-31 11:53N 28°19' W 038°02'0 7.9 25.8
2014-Oct-31 11:51N 28°19' W 038°02'0 0.0 25.8
2014-Oct-31 11:08N 28°19' W 038°02'0 8.8 25.8
2014-Oct-31 11:05N 28°19' W 038°02'0 0.2 25.8
2014-Oct-31 09:08N 28°19' W 038°02'010.9 25.8
2014-Oct-31 09:06N 28°19' W 038°01'1 5.4 25.8
2014-Oct-31 09:00N 28°18' W 038°01'0 0.0 25.8
2014-Oct-31 07:27N 28°18' W 038°01'011.9 25.8
2014-Oct-31 07:26N 28°18' W 038°01'113.0 25.8
2014-Oct-31 07:21N 28°18' W 038°00'0 0.0 25.8
2014-Oct-31 05:45N 28°18' W 038°00'0 0.0 25.8
2014-Oct-31 05:24N 28°18' W 038°00'0 3.7 25.8
2014-Oct-31 05:18N 28°18' W 038°01'0 0.1 25.8
2014-Oct-31 03:44N 28°18' W 038°01'1 5.1 25.9
2014-Oct-31 03:36N 28°19' W 038°00'0 0.0
2014-Oct-31 01:15N 28°19' W 038°00'0 0.0 25.9
2014-Oct-31 01:11N 28°19' W 038°00'2 2.4 25.9
2014-Oct-31 00:29N 28°19' W 038°02'0 0.0 25.9
2014-Oct-30 23:38N 28°19' W 038°02'0 0.0 25.9
2014-Oct-30 22:47N 28°19' W 038°02'221.6 25.9
2014-Oct-30 22:42N 28°19' W 037°60'0 0.0 25.9
2014-Oct-30 21:53N 28°19' W 037°60'1 0.7 25.9
2014-Oct-30 20:42N 28°19' W 037°59'0 0.0 25.9
2014-Oct-30 20:35N 28°19' W 037°59'1 3.0 25.9
2014-Oct-30 20:17N 28°19' W 038°00'1 0.7 25.9
2014-Oct-30 18:59N 28°19' W 037°59'0 2.4 25.9
2014-Oct-30 18:57N 28°19' W 037°59'0 0.3 25.9
2014-Oct-30 17:18N 28°18' W 037°60'0 0.0 26.0
2014-Oct-30 17:00N 28°18' W 037°60'0 0.0 26.0
2014-Oct-30 16:53N 28°18' W 037°60'0 0.2 26.0
2014-Oct-30 15:20N 28°18' W 038°00'1 0.5 26.0
2014-Oct-30 13:59N 28°18' W 037°59'0 0.0 25.9
2014-Oct-30 13:14N 28°18' W 037°59'0 0.2 25.9
2014-Oct-30 12:12N 28°18' W 037°59'0 0.0
2014-Oct-30 11:30N 28°18' W 037°59'0 6.6 25.9
2014-Oct-30 11:26N 28°18' W 037°59'0 0.1 25.9
2014-Oct-30 09:29N 28°18' W 037°59'1 6.7 25.9
2014-Oct-30 09:24N 28°19' W 037°58'0 0.0 25.9
2014-Oct-30 09:17N 28°19' W 037°58'0 0.3 25.9
2014-Oct-30 07:59N 28°18' W 037°59'0 0.7 25.9
2014-Oct-30 07:48N 28°18' W 037°58'0 2.2 25.9
2014-Oct-30 07:36N 28°19' W 037°58'0 4.9 25.9
2014-Oct-30 07:33N 28°19' W 037°58'0 0.0 25.9
2014-Oct-30 07:30N 28°19' W 037°58'0 0.1 25.9
2014-Oct-30 05:51N 28°19' W 037°58'0 0.0 25.9
2014-Oct-30 05:36N 28°19' W 037°58'1 0.8 25.9
2014-Oct-30 03:50N 28°20' W 037°57'0 0.0 25.9
2014-Oct-30 01:32N 28°20' W 037°57'0 0.0 25.9
2014-Oct-30 00:48N 28°20' W 037°57'1 1.1 25.9
2014-Oct-29 23:53N 28°20' W 037°58'0 0.0 25.9
2014-Oct-29 23:08N 28°20' W 037°58'0 2.9 25.9
2014-Oct-29 23:02N 28°20' W 037°58'0 0.0 25.9
2014-Oct-29 22:23N 28°20' W 037°58'0 2.5 26.0
2014-Oct-29 22:17N 28°20' W 037°58'0 0.0 26.0
2014-Oct-29 22:12N 28°20' W 037°58'0 0.1 26.0
2014-Oct-29 20:38N 28°20' W 037°58'0 0.1 26.0
2014-Oct-29 19:30N 28°20' W 037°58'0 1.1 26.0
2014-Oct-29 19:12N 28°20' W 037°58'114.3 26.0
2014-Oct-29 19:08N 28°20' W 037°60'0 0.3 26.1
2014-Oct-29 17:48N 28°20' W 037°59'1 2.3 26.1
2014-Oct-29 17:30N 28°20' W 037°58'1 3.3 26.2
2014-Oct-29 17:11N 28°20' W 037°60'121.2 26.2
2014-Oct-29 17:08N 28°20' W 037°58'1 0.6 26.2
2014-Oct-29 15:30N 28°20' W 037°60'1 0.6 26.2
2014-Oct-29 14:18N 28°20' W 037°59'0 0.5 26.0
2014-Oct-29 13:23N 28°20' W 037°59'0 0.0
2014-Oct-29 12:32N 28°20' W 037°59'0 0.0 26.0
2014-Oct-29 11:51N 28°20' W 037°59'0 4.8 25.9
2014-Oct-29 11:50N 28°20' W 037°59'0 0.7 25.9
2014-Oct-29 11:45N 28°20' W 037°59'0 0.0 25.9
2014-Oct-29 10:57N 28°20' W 037°59'0 0.0 25.9
2014-Oct-29 10:53N 28°20' W 037°59'0 0.1 25.9
2014-Oct-29 10:06N 28°20' W 037°59'0 1.3 25.9
2014-Oct-29 09:53N 28°20' W 037°59'0 4.9 25.9
2014-Oct-29 09:48N 28°19' W 037°59'0 0.0 25.9
2014-Oct-29 09:27N 28°19' W 037°59'0 0.2 25.9
2014-Oct-29 08:08N 28°19' W 037°59'0 0.2 25.9
2014-Oct-29 07:45N 28°19' W 037°59'0 5.5 25.9
2014-Oct-29 07:41N 28°20' W 037°59'0 0.0 25.9
2014-Oct-29 06:50N 28°20' W 037°59'0 0.8 25.9
2014-Oct-29 06:33N 28°19' W 037°59'0 0.3 25.9
2014-Oct-29 06:08N 28°20' W 037°59'0 3.1 25.9
2014-Oct-29 06:00N 28°19' W 037°58'0 0.0 25.9
2014-Oct-29 05:48N 28°19' W 037°58'0 6.5 25.9
2014-Oct-29 05:45N 28°19' W 037°58'1 0.3 25.9
2014-Oct-29 04:08N 28°20' W 037°58'0 2.4 25.9
2014-Oct-29 04:06N 28°20' W 037°58'1 8.3 25.9
2014-Oct-29 04:00N 28°19' W 037°58'0 0.0 25.9
2014-Oct-29 01:06N 28°19' W 037°58'016.7 25.9
2014-Oct-29 01:05N 28°19' W 037°58'0 0.1
2014-Oct-29 00:18N 28°19' W 037°58'1 1.0 25.9
2014-Oct-28 23:30N 28°19' W 037°59'0 1.2 25.9
2014-Oct-28 23:27N 28°19' W 037°59'110.9 25.9
2014-Oct-28 23:23N 28°19' W 037°58'118.9
2014-Oct-28 23:21N 28°19' W 037°59'0 0.0 26.0
2014-Oct-28 22:51N 28°19' W 037°59'0 0.0 26.0
2014-Oct-28 22:38N 28°19' W 037°59'0 2.4 26.0
2014-Oct-28 22:33N 28°19' W 037°58'1 0.9 26.0
2014-Oct-28 21:30N 28°20' W 037°58'0 0.0 26.0
2014-Oct-28 19:53N 28°20' W 037°58'111.9 26.2
2014-Oct-28 19:50N 28°20' W 037°57'1 3.1 26.2
2014-Oct-28 19:30N 28°20' W 037°58'0 0.0 26.2
2014-Oct-28 19:23N 28°20' W 037°58'0 0.0 26.3
2014-Oct-28 18:14N 28°20' W 037°58'0 3.6 26.4
2014-Oct-28 18:08N 28°20' W 037°58'0 0.5 26.4
2014-Oct-28 17:42N 28°20' W 037°58'0 3.0 26.4
2014-Oct-28 17:38N 28°20' W 037°58'0 1.0 26.4
2014-Oct-28 17:23N 28°20' W 037°58'1 0.4 26.4
2014-Oct-28 15:42N 28°20' W 037°59'0 0.1 26.4
2014-Oct-28 13:53N 28°20' W 037°59'0 0.0 26.2
2014-Oct-28 13:45N 28°20' W 037°59'0 0.0 26.2
2014-Oct-28 12:06N 28°20' W 037°59'0 0.0
2014-Oct-28 12:05N 28°20' W 037°59'0 0.2 26.0
2014-Oct-28 11:20N 28°20' W 037°59'1 8.6 25.9
2014-Oct-28 11:15N 28°20' W 037°58'0 0.0 25.9
2014-Oct-28 09:00N 28°20' W 037°58'0 0.9 25.9
2014-Oct-28 08:33N 28°19' W 037°58'0 0.5 25.9
2014-Oct-28 07:57N 28°20' W 037°58'0 0.2 25.9
2014-Oct-28 07:20N 28°20' W 037°58'0 0.3 25.9
2014-Oct-28 06:51N 28°20' W 037°58'0 0.0 25.9
2014-Oct-28 06:18N 28°20' W 037°58'0 2.4 25.9
2014-Oct-28 06:14N 28°20' W 037°58'0 0.0 25.9
2014-Oct-28 05:59N 28°20' W 037°58'0 9.5 25.9
2014-Oct-28 05:56N 28°20' W 037°57'0 9.7 25.9
2014-Oct-28 05:53N 28°20' W 037°58'0 0.0 25.9
2014-Oct-28 04:18N 28°20' W 037°58'111.2 25.9
2014-Oct-28 04:11N 28°20' W 037°56'0 0.0 25.9
2014-Oct-28 01:26N 28°20' W 037°56'1 0.5 26.0
2014-Oct-27 23:51N 28°20' W 037°57'0 0.0 26.0
2014-Oct-27 23:44N 28°20' W 037°57'0 0.0 26.0
2014-Oct-27 22:59N 28°20' W 037°57'1 9.3 26.0
2014-Oct-27 22:53N 28°20' W 037°58'246.5 26.0
2014-Oct-27 22:51N 28°20' W 037°57'0 0.0 26.0
2014-Oct-27 21:50N 28°20' W 037°57'1 0.4 26.0
2014-Oct-27 20:18N 28°21' W 037°56'0 0.0 26.1
2014-Oct-27 20:03N 28°21' W 037°56'112.9 26.1
2014-Oct-27 20:00N 28°21' W 037°57'0 0.4 26.1
2014-Oct-27 19:35N 28°21' W 037°57'0 0.3 26.2
2014-Oct-27 18:39N 28°21' W 037°57'022.5 26.2
2014-Oct-27 18:38N 28°21' W 037°57'0 0.2 26.2
2014-Oct-27 17:53N 28°21' W 037°57'1 2.4 26.3
2014-Oct-27 17:32N 28°22' W 037°58'0 0.0 26.3
2014-Oct-27 15:53N 28°22' W 037°58'1 0.4 26.2
2014-Oct-27 14:08N 28°21' W 037°58'0 0.0 26.0
2014-Oct-27 14:06N 28°21' W 037°58'0 0.0
2014-Oct-27 12:32N 28°21' W 037°58'0 0.0 26.0
2014-Oct-27 12:24N 28°21' W 037°58'0 0.0 26.0
2014-Oct-27 11:41N 28°21' W 037°58'0 3.2 26.0
2014-Oct-27 11:35N 28°21' W 037°58'0 0.0 26.0
2014-Oct-27 10:53N 28°21' W 037°58'0 0.0 26.0
2014-Oct-27 10:48N 28°21' W 037°58'0 0.2 26.0
2014-Oct-27 09:02N 28°21' W 037°58'0 2.9 25.9
2014-Oct-27 08:53N 28°21' W 037°58'0 0.0 25.9
2014-Oct-27 08:08N 28°21' W 037°58'0 0.8 26.0
2014-Oct-27 07:53N 28°20' W 037°58'0 0.4 26.0
2014-Oct-27 07:23N 28°21' W 037°58'0 0.5 26.0
2014-Oct-27 06:33N 28°21' W 037°57'0 1.2 25.9
2014-Oct-27 06:30N 28°21' W 037°57'0 0.5 25.9
2014-Oct-27 06:23N 28°21' W 037°57'0 0.0
2014-Oct-27 06:06N 28°21' W 037°57'0 0.2 26.0
2014-Oct-27 04:27N 28°21' W 037°57'1 9.2 26.0
2014-Oct-27 04:21N 28°21' W 037°56'0 0.0 26.0
2014-Oct-27 00:59N 28°21' W 037°56'1 0.9 26.0
2014-Oct-27 00:08N 28°21' W 037°57'0 0.0 26.0
2014-Oct-27 00:05N 28°21' W 037°57'0 0.1 26.0
2014-Oct-26 23:20N 28°21' W 037°57'0 3.5 26.0
2014-Oct-26 23:15N 28°22' W 037°56'148.0 26.0
2014-Oct-26 23:14N 28°22' W 037°56'0 0.5 26.0
2014-Oct-26 22:30N 28°22' W 037°56'0 1.7 26.0
2014-Oct-26 22:17N 28°22' W 037°56'1 0.4 26.0
2014-Oct-26 20:42N 28°23' W 037°56'0 0.0 26.2
2014-Oct-26 20:33N 28°23' W 037°56'1 1.5 26.2
2014-Oct-26 19:47N 28°23' W 037°57'0 1.6 26.2
2014-Oct-26 19:42N 28°23' W 037°57'0 0.0 26.2
2014-Oct-26 18:06N 28°23' W 037°57'1 2.0 26.4
2014-Oct-26 17:44N 28°23' W 037°56'1 0.6 26.5
2014-Oct-26 16:05N 28°23' W 037°58'0 0.1 26.4
2014-Oct-26 14:20N 28°23' W 037°58'0 0.0 26.2
2014-Oct-26 13:42N 28°23' W 037°58'0 0.0 26.2
2014-Oct-26 12:53N 28°23' W 037°58'0 0.0 26.1
2014-Oct-26 12:51N 28°23' W 037°58'0 0.0 26.1
2014-Oct-26 12:48N 28°23' W 037°58'0 0.0 26.1
2014-Oct-26 12:02N 28°23' W 037°58'1 4.1 26.0
2014-Oct-26 11:53N 28°22' W 037°58'0 0.0 26.0
2014-Oct-26 11:14N 28°22' W 037°58'0 0.0 26.0
2014-Oct-26 11:11N 28°22' W 037°58'0 0.0 26.0
2014-Oct-26 11:06N 28°22' W 037°58'0 0.0 26.0
2014-Oct-26 10:00N 28°22' W 037°58'0 0.8 25.9
2014-Oct-26 09:29N 28°23' W 037°58'1 9.0 26.0
2014-Oct-26 09:23N 28°23' W 037°59'0 0.0 26.0
2014-Oct-26 08:24N 28°23' W 037°59'0 3.6 25.9
2014-Oct-26 08:21N 28°22' W 037°59'116.6 25.9
2014-Oct-26 08:17N 28°22' W 037°58'0 0.3 25.9
2014-Oct-26 07:50N 28°22' W 037°58'0 1.0 26.0
2014-Oct-26 07:42N 28°22' W 037°58'0 0.2
2014-Oct-26 06:45N 28°22' W 037°58'0 0.0 26.0
2014-Oct-26 06:42N 28°22' W 037°58'0 2.7 26.0
2014-Oct-26 06:35N 28°22' W 037°58'0 0.0 26.0
2014-Oct-26 06:23N 28°22' W 037°58'1 0.3 26.0
2014-Oct-26 04:38N 28°23' W 037°58'111.1 26.0
2014-Oct-26 04:32N 28°23' W 037°57'0 0.0 26.0
2014-Oct-26 02:59N 28°23' W 037°57'0 0.0 26.0
2014-Oct-26 01:20N 28°23' W 037°57'111.0 26.0
2014-Oct-26 01:15N 28°22' W 037°58'0 0.0 26.0
2014-Oct-26 00:32N 28°22' W 037°58'0 0.4 26.0
2014-Oct-25 23:36N 28°23' W 037°57'1 1.1 26.0
2014-Oct-25 22:51N 28°23' W 037°56'0 6.3 26.0
2014-Oct-25 22:48N 28°23' W 037°56'0 0.4 26.0
2014-Oct-25 21:59N 28°23' W 037°56'0 4.0 26.0
2014-Oct-25 21:53N 28°23' W 037°56'0 0.0 26.0
2014-Oct-25 21:06N 28°23' W 037°56'0 5.8 26.0
2014-Oct-25 21:02N 28°23' W 037°57'0 0.0 26.0
2014-Oct-25 19:57N 28°23' W 037°57'1 1.7 26.0
2014-Oct-25 19:29N 28°24' W 037°57'0 0.0 26.0
2014-Oct-25 18:17N 28°24' W 037°57'1 1.4 26.1
2014-Oct-25 17:51N 28°24' W 037°57'0 6.0 26.1
2014-Oct-25 17:47N 28°24' W 037°57'0 0.3 26.1
2014-Oct-25 16:30N 28°24' W 037°57'0 0.0 26.1
2014-Oct-25 16:15N 28°24' W 037°57'0 0.2 26.1
2014-Oct-25 14:33N 28°25' W 037°57'0 0.0 26.0
2014-Oct-25 14:03N 28°25' W 037°57'1 0.9 26.0
2014-Oct-25 13:12N 28°25' W 037°58'0 0.0 26.0
2014-Oct-25 12:21N 28°25' W 037°58'0 8.2 26.0
2014-Oct-25 12:18N 28°24' W 037°58'0 0.0 26.0
2014-Oct-25 12:15N 28°24' W 037°58'0 0.0 26.0
2014-Oct-25 11:29N 28°24' W 037°58'0 0.0 26.0
2014-Oct-25 10:42N 28°24' W 037°58'1 8.1 26.0
2014-Oct-25 10:38N 28°24' W 037°57'0 0.0 26.0
2014-Oct-25 09:51N 28°24' W 037°57'1 7.9 26.0
2014-Oct-25 09:47N 28°24' W 037°58'0 0.0 26.0
2014-Oct-25 08:56N 28°24' W 037°58'0 0.6 26.0
2014-Oct-25 08:35N 28°24' W 037°58'0 2.7 26.0
2014-Oct-25 08:27N 28°24' W 037°58'0 0.0 26.0
2014-Oct-25 08:08N 28°24' W 037°58'0 0.3 26.0
2014-Oct-25 07:15N 28°24' W 037°58'0 1.1 26.0
2014-Oct-25 06:53N 28°24' W 037°58'0 1.2 26.0
2014-Oct-25 06:47N 28°24' W 037°58'0 0.0 26.0
2014-Oct-25 06:33N 28°24' W 037°58'0 0.0 26.0
2014-Oct-25 04:53N 28°24' W 037°58'254.0 26.0
2014-Oct-25 04:51N 28°24' W 037°56'0 0.0 26.0
2014-Oct-25 04:42N 28°24' W 037°56'0 0.0 26.0
2014-Oct-25 03:08N 28°24' W 037°56'0 0.0 26.0
2014-Oct-25 03:05N 28°24' W 037°56'1 0.3 26.0
2014-Oct-25 01:36N 28°24' W 037°56'0 0.0 26.0
2014-Oct-25 00:50N 28°24' W 037°56'0 0.1 26.0
2014-Oct-25 00:02N 28°24' W 037°56'0 0.3 26.0
2014-Oct-24 23:12N 28°24' W 037°57'0 0.0 26.0
2014-Oct-24 23:06N 28°24' W 037°57'0 0.0 26.0
2014-Oct-24 22:20N 28°24' W 037°57'0 2.0 26.0
2014-Oct-24 22:15N 28°24' W 037°57'1 1.0 26.0
2014-Oct-24 21:27N 28°24' W 037°56'0 0.3 26.0
2014-Oct-24 20:08N 28°24' W 037°56'1 2.1 26.0
2014-Oct-24 19:53N 28°25' W 037°55'233.1 26.0
2014-Oct-24 19:50N 28°24' W 037°57'0 0.3 26.0
2014-Oct-24 18:29N 28°25' W 037°57'2 7.2 26.0
2014-Oct-24 18:11N 28°26' W 037°55'0 0.0 26.0
2014-Oct-24 18:03N 28°26' W 037°55'0 0.0 26.0
2014-Oct-24 16:26N 28°25' W 037°55'2 1.0 26.1
2014-Oct-24 14:44N 28°26' W 037°57'0 0.0 26.0
2014-Oct-24 14:21N 28°26' W 037°57'0 0.0 26.0
2014-Oct-24 13:36N 28°26' W 037°57'0 0.0 26.0
2014-Oct-24 12:47N 28°26' W 037°57'1 4.2 26.0
2014-Oct-24 12:39N 28°26' W 037°58'112.7
2014-Oct-24 12:35N 28°26' W 037°59'0 0.0 26.0
2014-Oct-24 11:51N 28°26' W 037°59'0 0.0 26.0
2014-Oct-24 11:47N 28°26' W 037°59'0 0.0 26.0
2014-Oct-24 11:03N 28°26' W 037°59'0 0.0 26.0
2014-Oct-24 11:00N 28°26' W 037°59'0 0.2 26.0
2014-Oct-24 09:26N 28°26' W 037°58'0 0.4 26.0
2014-Oct-24 08:45N 28°26' W 037°58'0 3.2 26.0
2014-Oct-24 08:39N 28°26' W 037°59'0 0.0 26.0
2014-Oct-24 08:35N 28°26' W 037°59'0 0.1 26.0
2014-Oct-24 07:05N 28°25' W 037°59'1 0.3 26.0
2014-Oct-24 05:23N 28°25' W 037°59'0 0.0 26.0
2014-Oct-24 05:02N 28°25' W 037°59'111.6 26.0
2014-Oct-24 04:56N 28°24' W 037°59'0 0.0 26.0
2014-Oct-24 03:23N 28°24' W 037°59'123.0
2014-Oct-24 03:21N 28°25' W 037°59'112.7 26.0
2014-Oct-24 03:15N 28°25' W 037°58'0 0.0 26.0
2014-Oct-24 00:23N 28°25' W 037°58'1 0.7 26.0
2014-Oct-23 23:33N 28°24' W 037°58'0 0.0 26.0
2014-Oct-23 23:29N 28°24' W 037°58'0 0.0 26.0
2014-Oct-23 23:20N 28°24' W 037°58'0 0.0 26.0
2014-Oct-23 22:38N 28°24' W 037°58'0 3.6 26.0
2014-Oct-23 22:35N 28°24' W 037°58'0 0.0 26.1
2014-Oct-23 22:32N 28°24' W 037°58'0 0.0 26.1
2014-Oct-23 22:15N 28°24' W 037°58'1 0.5 26.1
2014-Oct-23 20:27N 28°25' W 037°58'0 0.0 26.1
2014-Oct-23 20:17N 28°25' W 037°58'1 0.6 26.1
2014-Oct-23 18:39N 28°26' W 037°57'0 0.0 26.1
2014-Oct-23 18:33N 28°26' W 037°57'0 0.0 26.1
2014-Oct-23 16:57N 28°26' W 037°57'0 0.3 26.2
2014-Oct-23 16:38N 28°26' W 037°57'0 1.2 26.2
2014-Oct-23 16:32N 28°26' W 037°57'1 0.5 26.2
2014-Oct-23 14:53N 28°27' W 037°58'1 0.9 26.1
2014-Oct-23 13:56N 28°27' W 037°59'1 1.0 26.1
2014-Oct-23 13:06N 28°27' W 037°58'1 7.0 26.1
2014-Oct-23 12:59N 28°27' W 037°59'0 0.0 26.1
2014-Oct-23 12:11N 28°27' W 037°59'0 0.0 26.0
2014-Oct-23 12:08N 28°27' W 037°59'0 0.2 26.0
2014-Oct-23 11:23N 28°27' W 037°59'0 3.2 26.0
2014-Oct-23 11:18N 28°27' W 037°59'112.4 26.0
2014-Oct-23 11:15N 28°26' W 037°59'0 0.0 26.0
2014-Oct-23 09:53N 28°26' W 037°59'1 0.9 26.0
2014-Oct-23 08:59N 28°27' W 038°00'0 0.2 26.0
2014-Oct-23 07:15N 28°27' W 038°00'0 3.5 26.0
2014-Oct-23 07:08N 28°27' W 038°01'0 0.0 26.0
2014-Oct-23 06:53N 28°27' W 038°01'0 0.0 26.0
2014-Oct-23 06:38N 28°27' W 038°01'0 0.0 26.1
2014-Oct-23 05:35N 28°27' W 038°01'1 1.4 26.1
2014-Oct-23 05:14N 28°26' W 038°01'1 6.9 26.1
2014-Oct-23 05:06N 28°25' W 037°60'0 0.0 26.1
2014-Oct-23 03:33N 28°25' W 037°60'0 0.1 26.1
2014-Oct-22 23:51N 28°25' W 038°00'0 0.0 26.1
2014-Oct-22 23:47N 28°25' W 038°00'0 0.0
2014-Oct-22 23:03N 28°25' W 038°00'1 5.9 26.1
2014-Oct-22 22:57N 28°25' W 037°60'0 0.0 26.1
2014-Oct-22 22:44N 28°25' W 037°60'1 2.1 26.1
2014-Oct-22 22:12N 28°26' W 037°60'0 0.0 26.1
2014-Oct-22 20:57N 28°26' W 037°60'0 0.0 26.1
2014-Oct-22 20:42N 28°26' W 037°60'0 0.0 26.1
2014-Oct-22 20:29N 28°26' W 037°60'0 0.0 26.1
2014-Oct-22 19:21N 28°26' W 037°60'0 0.0 26.1
2014-Oct-22 18:51N 28°26' W 037°60'0 0.0 26.2
2014-Oct-22 17:05N 28°26' W 037°60'0 0.0 26.2
2014-Oct-22 16:48N 28°26' W 037°60'1 0.3 26.2
2014-Oct-22 15:08N 28°27' W 037°59'1 0.5 26.2
2014-Oct-22 12:35N 28°28' W 038°01'0 0.0 26.2
2014-Oct-22 11:44N 28°28' W 038°01'1 7.6 26.1
2014-Oct-22 11:39N 28°28' W 038°01'0 0.2 26.1
2014-Oct-22 10:48N 28°28' W 038°01'0 0.0 26.1
2014-Oct-22 09:23N 28°28' W 038°01'139.5 26.1
2014-Oct-22 09:21N 28°27' W 038°03'0 0.0 26.1
2014-Oct-22 09:06N 28°27' W 038°03'1 9.5 26.1
2014-Oct-22 09:02N 28°27' W 038°02'1 5.9 26.1
2014-Oct-22 08:50N 28°28' W 038°01'1 0.6 26.1
2014-Oct-22 07:27N 28°27' W 038°02'0 0.3 26.1
2014-Oct-22 07:08N 28°27' W 038°02'1 0.5 26.1
2014-Oct-22 05:48N 28°27' W 038°02'0 3.6 26.1
2014-Oct-22 05:44N 28°27' W 038°02'0 0.0 26.1
2014-Oct-22 05:24N 28°27' W 038°02'1 0.4 26.1
2014-Oct-22 03:47N 28°27' W 038°03'0 0.0 26.2
2014-Oct-22 03:44N 28°27' W 038°03'1 9.5 26.2
2014-Oct-22 03:36N 28°26' W 038°03'0 0.1 26.2
2014-Oct-22 01:03N 28°26' W 038°02'2 2.5 26.2
2014-Oct-22 00:15N 28°27' W 038°01'214.8 26.2
2014-Oct-22 00:08N 28°26' W 038°03'0 0.0 26.2
2014-Oct-21 23:24N 28°26' W 038°03'110.5 26.2
2014-Oct-21 23:17N 28°26' W 038°01'0 0.0 26.2
2014-Oct-21 22:33N 28°26' W 038°01'0 0.0 26.2
2014-Oct-21 22:27N 28°26' W 038°01'0 0.0 26.2
2014-Oct-21 21:38N 28°26' W 038°01'1 0.5 26.2
2014-Oct-21 20:38N 28°27' W 038°01'0 0.0 26.2
2014-Oct-21 19:59N 28°27' W 038°01'   26.2

Dump ship's entire track history